Time;durP1;ratioP1;P1;durP2;ratioP2;P2;SDS_P1;SDS_P2;PMS_P1;PMS_P2;Temp;Humidity;BMP_temperature;BMP_pressure;BME280_temperature;BME280_humidity;BME280_pressure;Samples;Min_cycle;Max_cycle;Signal;HPM_P1;HPM_P2
2021/06/01 00:02:15;;;;;;;;;;;18.10;99.90;;;17.78;95.02;100372.53;5055572;28;20286;-63
2021/06/01 00:04:42;;;;;;;;;;;18.20;99.90;;;17.77;94.14;100363.53;5055188;28;19955;-64
2021/06/01 00:07:10;;;;;;;;;;;18.20;99.90;;;17.79;94.32;100355.78;5054930;28;20362;-63
2021/06/01 00:09:37;;;;;;;;;;;18.10;99.90;;;17.79;93.58;100353.03;5055027;28;19929;-63
2021/06/01 00:12:07;;;;;;;;;;;18.20;99.90;;;17.82;93.49;100351.53;5055485;28;19948;-64
2021/06/01 00:14:34;;;;;;;;;;;18.10;99.90;;;17.87;92.99;100348.56;5054958;28;19929;-63
2021/06/01 00:17:01;;;;;;;;;;;18.20;99.90;;;17.83;92.49;100351.22;5054660;28;19925;-63
2021/06/01 00:19:29;;;;;;;;;;;18.20;99.90;;;17.82;92.42;100343.34;5054643;28;19924;-63
2021/06/01 00:21:56;;;;;;;;;;;18.10;99.90;;;17.76;92.38;100345.53;5055211;28;20484;-64
2021/06/01 00:24:23;;;;;;;;;;;18.10;99.90;;;17.69;92.38;100339.84;5055023;28;19925;-64
2021/06/01 00:26:50;;;;;;;;;;;18.10;99.90;;;17.68;92.72;100351.16;5054386;28;19932;-64
2021/06/01 00:29:19;;;;;;;;;;;18.00;99.90;;;17.67;92.82;100346.81;5053911;28;20378;-63
2021/06/01 00:31:46;;;;;;;;;;;18.00;99.90;;;17.62;93.47;100347.09;5054934;28;19925;-63
2021/06/01 00:34:14;;;;;;;;;;;18.00;99.90;;;17.62;93.32;100339.69;5054960;28;20370;-64
2021/06/01 00:36:42;;;;;;;;;;;18.00;99.90;;;17.63;93.19;100337.75;5053881;28;19925;-63
2021/06/01 00:39:09;;;;;;;;;;;18.00;99.90;;;17.59;93.46;100339.56;5054038;28;20306;-64
2021/06/01 00:41:36;;;;;;;;;;;18.00;99.90;;;17.54;93.93;100334.34;5054907;28;19979;-64
2021/06/01 00:44:04;;;;;;;;;;;18.00;99.90;;;17.53;94.50;100330.00;5054850;28;19929;-64
2021/06/01 00:46:33;;;;;;;;;;;17.90;99.90;;;17.49;95.09;100330.69;5053868;28;19925;-64
2021/06/01 00:49:00;;;;;;;;;;;17.90;99.90;;;17.54;94.80;100334.34;5053803;28;19974;-64
2021/06/01 00:51:28;;;;;;;;;;;17.90;99.90;;;17.51;94.48;100324.09;5054656;28;20329;-64
2021/06/01 00:53:55;;;;;;;;;;;17.90;99.90;;;17.47;94.80;100338.47;5054812;28;19925;-63
2021/06/01 00:56:23;;;;;;;;;;;17.90;99.90;;;17.46;94.75;100330.59;5053632;28;19925;-64
2021/06/01 00:58:50;;;;;;;;;;;17.80;99.90;;;17.46;94.46;100334.13;5053797;28;19924;-63
2021/06/01 01:01:20;;;;;;;;;;;17.90;99.90;;;17.46;94.49;100342.31;5054315;28;20341;-64
2021/06/01 01:03:50;;;;;;;;;;;17.80;99.90;;;17.48;94.74;100333.75;5054493;28;19924;-63
2021/06/01 01:06:37;;;;;;;;;;;17.80;99.90;;;17.48;94.49;100331.81;5053578;28;19925;-64
2021/06/01 01:09:09;;;;;;;;;;;17.80;99.90;;;17.45;94.41;100324.31;5053672;28;19929;-63
2021/06/01 01:11:44;;;;;;;;;;;17.80;99.90;;;17.42;94.99;100330.47;5054104;28;20340;-64
2021/06/01 01:14:17;;;;;;;;;;;17.80;99.90;;;17.40;95.21;100327.31;5054024;28;19952;-63
2021/06/01 01:16:52;;;;;;;;;;;17.80;99.90;;;17.40;94.87;100321.84;5053244;28;19932;-63
2021/06/01 01:19:38;;;;;;;;;;;17.70;99.90;;;17.39;95.19;100313.97;5053497;28;20386;-63
2021/06/01 01:22:05;;;;;;;;;;;17.70;99.90;;;17.36;95.42;100318.22;5054027;28;19925;-63
2021/06/01 01:24:44;;;;;;;;;;;17.70;99.90;;;17.31;95.88;100307.53;5053365;28;19928;-64
2021/06/01 01:27:17;;;;;;;;;;;17.60;99.90;;;17.25;95.78;100306.19;5053647;28;19933;-63
2021/06/01 01:29:48;;;;;;;;;;;17.60;99.90;;;17.22;96.01;100312.34;5053202;28;19979;-64
2021/06/01 01:32:26;;;;;;;;;;;17.50;99.90;;;17.18;96.39;100311.44;5053881;28;19925;-63
2021/06/01 01:34:57;;;;;;;;;;;17.50;99.90;;;17.15;96.72;100303.94;5053132;28;19929;-64
2021/06/01 01:37:28;;;;;;;;;;;17.50;99.90;;;17.14;96.98;100305.09;5053282;28;19940;-63
2021/06/01 01:39:59;;;;;;;;;;;17.50;99.90;;;17.14;97.44;100296.09;5052909;28;19925;-64
2021/06/01 01:42:28;;;;;;;;;;;17.50;99.90;;;17.13;97.89;100291.75;5052988;28;19925;-64
2021/06/01 01:44:55;;;;;;;;;;;17.50;99.90;;;17.15;98.54;100292.19;5053130;28;20361;-63
2021/06/01 01:50:10;;;;;;;;;;;17.50;99.90;;;17.14;98.44;100288.69;5053117;28;20427;-64
2021/06/01 01:52:38;;;;;;;;;;;17.50;99.90;;;17.17;98.93;100285.28;5053419;28;19925;-63
2021/06/01 01:55:08;;;;;;;;;;;17.50;99.90;;;17.18;99.15;100286.84;5052848;28;19924;-63
2021/06/01 01:57:36;;;;;;;;;;;17.50;99.90;;;17.19;99.19;100280.25;5052966;28;19979;-63
2021/06/01 02:00:07;;;;;;;;;;;17.50;99.90;;;17.19;99.07;100284.91;5052769;28;19947;-63
2021/06/01 02:02:35;;;;;;;;;;;17.50;99.90;;;17.18;98.75;100280.56;5053219;28;19932;-64
2021/06/01 02:05:03;;;;;;;;;;;17.50;99.90;;;17.13;98.93;100275.38;5052762;28;20362;-64
2021/06/01 02:07:33;;;;;;;;;;;17.50;99.90;;;17.12;99.23;100277.28;5052957;28;20329;-63
2021/06/01 02:10:03;;;;;;;;;;;17.50;99.90;;;17.09;99.28;100275.25;5052840;28;19933;-63
2021/06/01 02:12:30;;;;;;;;;;;17.40;99.90;;;17.10;99.73;100282.31;5052868;28;19924;-63
2021/06/01 02:14:57;;;;;;;;;;;17.40;99.90;;;17.09;99.98;100279.91;5052590;28;20279;-64
2021/06/01 02:17:25;;;;;;;;;;;17.50;99.90;;;17.07;99.56;100277.56;5052432;28;20401;-63
2021/06/01 02:19:52;;;;;;;;;;;17.40;99.90;;;17.07;100.00;100282.22;5052537;28;19932;-63
2021/06/01 02:22:25;;;;;;;;;;;17.40;99.90;;;17.08;100.00;100276.41;5052966;28;19924;-64
2021/06/01 02:24:59;;;;;;;;;;;17.40;99.90;;;17.10;100.00;100279.59;5052319;28;20416;-64
2021/06/01 02:27:32;;;;;;;;;;;17.50;99.90;;;17.11;100.00;100285.84;5052275;28;20009;-63
2021/06/01 02:30:06;;;;;;;;;;;17.50;99.90;;;17.11;100.00;100278.47;5052244;28;19925;-64
2021/06/01 02:32:35;;;;;;;;;;;17.40;99.90;;;17.13;99.93;100283.56;5052828;28;20332;-63
2021/06/01 02:35:07;;;;;;;;;;;17.50;99.90;;;17.13;100.00;100289.81;5052141;28;19921;-63
2021/06/01 02:37:35;;;;;;;;;;;;;;;17.13;100.00;100281.63;5052131;28;19982;-63
2021/06/01 02:40:05;;;;;;;;;;;17.50;99.90;;;17.14;100.00;100279.69;5052149;28;19925;-64
2021/06/01 02:42:32;;;;;;;;;;;17.50;99.90;;;17.11;100.00;100275.72;5052092;28;20055;-64
2021/06/01 02:45:00;;;;;;;;;;;17.50;99.90;;;17.10;100.00;100282.31;5052153;28;19921;-64
2021/06/01 02:47:30;;;;;;;;;;;17.50;99.90;;;17.12;100.00;100280.03;5051895;28;19933;-64
2021/06/01 02:49:57;;;;;;;;;;;17.50;99.90;;;17.13;100.00;100278.09;5051908;28;20027;-64
2021/06/01 02:52:24;;;;;;;;;;;17.50;99.90;;;17.13;100.00;100278.09;5052206;28;19932;-64
2021/06/01 02:54:52;;;;;;;;;;;17.40;99.90;;;17.13;100.00;100284.38;5051868;28;20370;-63
2021/06/01 02:57:20;;;;;;;;;;;17.50;99.90;;;17.15;100.00;100289.47;5052178;28;19951;-64
2021/06/01 02:59:48;;;;;;;;;;;17.50;99.90;;;17.14;100.00;100285.16;5051673;28;20263;-64
2021/06/01 03:02:15;;;;;;;;;;;17.50;99.90;;;17.13;100.00;100278.91;5051996;28;19931;-63
2021/06/01 03:04:51;;;;;;;;;;;17.50;99.90;;;17.15;100.00;100282.06;5051783;28;19936;-63
2021/06/01 03:07:19;;;;;;;;;;;17.50;99.90;;;17.13;100.00;100283.56;5051813;28;19925;-64
2021/06/01 03:09:47;;;;;;;;;;;17.50;99.90;;;17.11;100.00;100285.84;5051637;28;20289;-63
2021/06/01 03:12:23;;;;;;;;;;;17.50;99.90;;;17.12;100.00;100285.50;5052080;28;19924;-64
2021/06/01 03:14:52;;;;;;;;;;;17.50;99.90;;;17.11;100.00;100281.19;5043592;28;20390;-63
2021/06/01 03:17:19;;;;;;;;;;;17.50;99.90;;;17.13;100.00;100278.91;5051761;28;19929;-63
2021/06/01 03:19:47;;;;;;;;;;;17.50;99.90;;;17.16;100.00;100280.13;5051562;28;20396;-63
2021/06/01 03:22:14;;;;;;;;;;;17.50;99.90;;;17.14;100.00;100275.03;5052066;28;19928;-63
2021/06/01 03:24:41;;;;;;;;;;;17.50;99.90;;;17.14;100.00;100276.97;5051724;28;19952;-63
2021/06/01 03:27:09;;;;;;;;;;;17.50;99.90;;;17.15;100.00;100267.59;5051706;28;19925;-63
2021/06/01 03:29:36;;;;;;;;;;;17.50;99.90;;;17.16;100.00;100274.66;5051597;28;19936;-63
2021/06/01 03:32:06;;;;;;;;;;;17.50;99.90;;;17.17;100.00;100273.53;5051768;28;20290;-63
2021/06/01 03:34:33;;;;;;;;;;;17.50;99.90;;;17.18;100.00;100273.19;5051765;28;20141;-64
2021/06/01 03:37:01;;;;;;;;;;;17.50;99.90;;;17.18;100.00;100270.44;5051668;28;20313;-63
2021/06/01 03:39:30;;;;;;;;;;;17.50;99.90;;;17.17;100.00;100268.06;5051459;28;19925;-64
2021/06/01 03:41:58;;;;;;;;;;;17.50;99.90;;;17.17;100.00;100268.06;5051541;28;19935;-63
2021/06/01 03:44:25;;;;;;;;;;;17.50;99.90;;;17.19;100.00;100271.25;5051805;28;19925;-63
2021/06/01 03:46:52;;;;;;;;;;;17.50;99.90;;;17.16;100.00;100283.66;5051323;28;19932;-63
2021/06/01 03:49:21;;;;;;;;;;;17.50;99.90;;;17.18;100.00;100283.31;5051435;28;20294;-63
2021/06/01 03:51:48;;;;;;;;;;;17.50;99.90;;;17.16;100.00;100282.88;5051578;28;20357;-64
2021/06/01 03:54:15;;;;;;;;;;;17.50;99.90;;;17.17;100.00;100290.72;5051891;28;20393;-63
2021/06/01 03:56:43;;;;;;;;;;;17.50;99.90;;;17.16;100.00;100282.88;5050871;28;19932;-63
2021/06/01 03:59:10;;;;;;;;;;;17.50;99.90;;;17.18;100.00;100283.31;5051383;28;19987;-64
2021/06/01 04:01:37;;;;;;;;;;;17.50;99.90;;;17.15;100.00;100279.34;5051253;28;19932;-64
2021/06/01 04:04:05;;;;;;;;;;;17.50;99.90;;;17.15;100.00;100289.47;5052036;28;19932;-64
2021/06/01 04:06:35;;;;;;;;;;;17.50;99.90;;;17.15;100.00;100292.19;5054233;28;19925;-63
2021/06/01 04:09:02;;;;;;;;;;;17.50;99.90;;;17.14;100.00;100285.16;5055054;28;20085;-63
2021/06/01 04:11:31;;;;;;;;;;;17.50;99.90;;;17.13;100.00;100292.56;5055009;28;19925;-63
2021/06/01 04:13:59;;;;;;;;;;;17.50;99.90;;;17.12;100.00;100285.50;5055382;28;19924;-63
2021/06/01 04:16:26;;;;;;;;;;;17.50;99.90;;;17.11;100.00;100292.13;5054477;28;19924;-64
2021/06/01 04:18:53;;;;;;;;;;;17.40;99.90;;;17.13;100.00;100300.75;5054922;28;19955;-63
2021/06/01 04:21:21;;;;;;;;;;;17.50;99.90;;;17.13;100.00;100295.28;5054570;28;19936;-63
2021/06/01 04:23:49;;;;;;;;;;;17.50;99.90;;;17.12;100.00;100296.41;5055110;28;19925;-63
2021/06/01 04:26:17;;;;;;;;;;;17.40;99.90;;;17.13;100.00;100289.81;5054183;28;19925;-63
2021/06/01 04:28:44;;;;;;;;;;;17.50;99.90;;;17.14;100.00;100293.34;5054850;28;19925;-64
2021/06/01 04:31:11;;;;;;;;;;;17.50;99.90;;;17.14;100.00;100293.34;5054771;28;19947;-64
2021/06/01 04:33:38;;;;;;;;;;;17.50;99.90;;;17.14;100.00;100304.28;5055171;28;19924;-63
2021/06/01 04:36:06;;;;;;;;;;;17.40;99.90;;;17.12;100.00;100295.63;5054079;28;19929;-64
2021/06/01 04:38:34;;;;;;;;;;;17.50;99.90;;;17.11;100.00;100302.25;5054495;28;19925;-63
2021/06/01 04:41:02;;;;;;;;;;;17.40;99.90;;;17.10;100.00;100300.66;5054444;28;19936;-63
2021/06/01 04:43:30;;;;;;;;;;;17.40;99.90;;;17.11;100.00;100302.25;5054667;28;19936;-64
2021/06/01 04:45:57;;;;;;;;;;;17.40;99.90;;;17.13;100.00;100308.16;5053974;28;20321;-64
2021/06/01 04:48:26;;;;;;;;;;;17.40;99.90;;;17.12;100.00;100303.81;5054329;28;19924;-64
2021/06/01 04:50:54;;;;;;;;;;;17.40;99.90;;;17.10;100.00;100301.44;5054045;28;20373;-63
2021/06/01 04:53:21;;;;;;;;;;;17.40;99.90;;;17.12;100.00;100301.09;5054522;28;19929;-64
2021/06/01 04:55:48;;;;;;;;;;;17.40;99.90;;;17.10;100.00;100306.91;5053534;28;19924;-63
2021/06/01 04:58:18;;;;;;;;;;;17.40;99.90;;;17.10;100.00;100306.91;5054341;28;19928;-64
2021/06/01 05:00:45;;;;;;;;;;;17.40;99.90;;;17.10;100.00;100300.66;5053832;28;19932;-64
2021/06/01 05:03:12;;;;;;;;;;;17.40;99.90;;;17.08;100.00;100301.00;5054641;28;19932;-64
2021/06/01 05:05:40;;;;;;;;;;;17.40;99.90;;;17.09;100.00;100299.84;5053889;28;19932;-63
2021/06/01 05:08:07;;;;;;;;;;;17.40;99.90;;;17.09;100.00;100308.03;5054264;28;20371;-64
2021/06/01 05:10:34;;;;;;;;;;;17.40;99.90;;;17.09;100.00;100299.03;5053814;28;19924;-64
2021/06/01 05:13:02;;;;;;;;;;;17.40;99.90;;;17.07;100.00;100307.59;5054159;28;19924;-64
2021/06/01 05:15:30;;;;;;;;;;;17.40;99.90;;;17.06;100.00;100311.47;5053405;28;20433;-64
2021/06/01 05:17:58;;;;;;;;;;;17.40;99.90;;;17.05;100.00;100307.16;5053853;28;19928;-64
2021/06/01 05:20:26;;;;;;;;;;;17.40;99.90;;;17.07;100.00;100309.53;5053565;28;20039;-63
2021/06/01 05:22:53;;;;;;;;;;;17.40;99.90;;;17.10;100.00;100297.91;5054127;28;19925;-64
2021/06/01 05:25:21;;;;;;;;;;;17.40;99.90;;;17.11;100.00;100302.25;5053527;28;19935;-63
2021/06/01 05:27:48;;;;;;;;;;;17.40;99.90;;;17.11;100.00;100297.59;5053679;28;19925;-63
2021/06/01 05:30:20;;;;;;;;;;;17.40;99.90;;;17.13;100.00;100299.94;5053520;28;19929;-63
2021/06/01 05:35:38;;;;;;;;;;;17.40;99.90;;;17.15;100.00;100298.47;5053363;28;20388;-63
2021/06/01 05:38:05;;;;;;;;;;;17.50;99.90;;;17.14;100.00;100299.63;5053708;28;20298;-63
2021/06/01 05:40:33;;;;;;;;;;;17.50;99.90;;;17.15;100.00;100293.00;5053018;28;19979;-64
2021/06/01 05:43:00;;;;;;;;;;;17.50;99.90;;;17.12;100.00;100293.69;5053715;28;19931;-63
2021/06/01 05:45:28;;;;;;;;;;;17.40;99.90;;;17.14;100.00;100288.69;5053027;28;19929;-63
2021/06/01 05:47:56;;;;;;;;;;;17.40;99.90;;;17.12;100.00;100288.22;5053317;28;19925;-63
2021/06/01 05:50:24;;;;;;;;;;;17.50;99.90;;;17.16;100.00;100297.34;5053392;28;20310;-63
2021/06/01 05:52:52;;;;;;;;;;;17.50;99.90;;;17.21;100.00;100297.06;5053442;28;19980;-63
2021/06/01 05:55:19;;;;;;;;;;;17.50;99.90;;;17.23;100.00;100297.53;5052779;28;19928;-64
2021/06/01 05:57:46;;;;;;;;;;;17.50;99.90;;;17.22;100.00;100298.69;5052906;28;19925;-64
2021/06/01 06:00:14;;;;;;;;;;;17.60;99.90;;;17.24;100.00;100307.31;5052869;28;20401;-64
2021/06/01 06:02:42;;;;;;;;;;;17.60;99.90;;;17.29;100.00;100315.28;5053027;28;19924;-64
2021/06/01 06:05:14;;;;;;;;;;;17.60;99.90;;;17.34;100.00;100312.31;5052101;28;23232;-64
2021/06/01 06:07:41;;;;;;;;;;;17.60;99.90;;;17.35;99.59;100308.44;5052629;28;19935;-63
2021/06/01 06:10:10;;;;;;;;;;;17.60;99.90;;;17.38;99.85;100324.13;5052773;28;19928;-63
2021/06/01 06:12:37;;;;;;;;;;;17.60;99.90;;;17.35;99.61;100310.38;5053080;28;19925;-64
2021/06/01 06:15:07;;;;;;;;;;;17.70;99.90;;;17.35;99.33;100318.56;5052546;28;19952;-64
2021/06/01 06:17:40;;;;;;;;;;;17.60;99.90;;;17.37;99.33;100322.53;5052921;28;20075;-64
2021/06/01 06:20:08;;;;;;;;;;;17.70;99.90;;;17.37;99.14;100327.19;5052354;28;19925;-64
2021/06/01 06:22:37;;;;;;;;;;;17.60;99.90;;;17.33;98.75;100323.56;5052827;28;20271;-63
2021/06/01 06:25:05;;;;;;;;;;;17.60;99.90;;;17.33;98.75;100329.84;5052243;28;20453;-64
2021/06/01 06:27:33;;;;;;;;;;;17.60;99.90;;;17.29;98.89;100331.69;5051971;28;20414;-63
2021/06/01 06:30:00;;;;;;;;;;;17.60;99.90;;;17.32;98.96;100331.00;5052712;28;19924;-64
2021/06/01 06:32:28;;;;;;;;;;;17.60;99.90;;;17.28;98.45;100338.28;5052836;28;20259;-63
2021/06/01 06:34:55;;;;;;;;;;;17.60;99.90;;;17.32;98.72;100339.19;5052028;28;19937;-64
2021/06/01 06:37:22;;;;;;;;;;;17.60;99.90;;;17.34;98.39;100345.09;5052196;28;19929;-63
2021/06/01 06:39:51;;;;;;;;;;;17.60;99.90;;;17.41;98.88;100339.03;5052229;28;19925;-64
2021/06/01 06:42:19;;;;;;;;;;;17.70;99.90;;;17.47;98.02;100335.72;5052600;28;20020;-63
2021/06/01 06:44:49;;;;;;;;;;;17.80;99.90;;;17.51;97.81;100343.22;5051860;28;20271;-63
2021/06/01 06:47:27;;;;;;;;;;;17.80;99.90;;;17.54;97.42;100337.84;5052203;28;19925;-64
2021/06/01 06:49:55;;;;;;;;;;;17.80;99.90;;;17.60;97.85;100341.19;5052164;28;19925;-64
2021/06/01 06:52:23;;;;;;;;;;;17.90;99.90;;;17.64;98.03;100331.91;5052305;28;19932;-64
2021/06/01 06:54:52;;;;;;;;;;;17.90;99.90;;;17.69;98.11;100333.63;5051668;28;19924;-65
2021/06/01 06:57:19;;;;;;;;;;;18.00;99.90;;;17.71;97.12;100334.84;5052031;28;19925;-64
2021/06/01 06:59:46;;;;;;;;;;;18.00;99.90;;;17.69;96.94;100339.09;5051971;28;19925;-63
2021/06/01 07:02:14;;;;;;;;;;;18.00;99.90;;;17.58;95.13;100337.97;5052126;28;19928;-64
2021/06/01 07:04:41;;;;;;;;;;;17.90;99.90;;;17.42;96.17;100330.47;5051485;28;19929;-63
2021/06/01 07:07:08;;;;;;;;;;;17.80;99.90;;;17.46;97.60;100344.25;5051835;28;19925;-63
2021/06/01 07:09:38;;;;;;;;;;;17.80;99.90;;;17.55;97.50;100342.22;5051892;28;19929;-64
2021/06/01 07:12:08;;;;;;;;;;;17.90;99.90;;;17.59;96.56;100340.38;5052292;28;19925;-64
2021/06/01 07:14:46;;;;;;;;;;;17.90;99.90;;;17.63;96.51;100343.22;5051391;28;19931;-64
2021/06/01 07:17:15;;;;;;;;;;;17.90;99.90;;;17.68;95.85;100348.44;5051958;28;20384;-63
2021/06/01 07:19:45;;;;;;;;;;;18.00;99.90;;;17.75;95.97;100346.66;5051598;28;19925;-63
2021/06/01 07:22:12;;;;;;;;;;;18.10;99.90;;;17.84;95.45;100346.53;5052005;28;19931;-63
2021/06/01 07:24:40;;;;;;;;;;;18.10;99.90;;;17.93;95.66;100347.94;5051504;28;19964;-64
2021/06/01 07:27:09;;;;;;;;;;;18.20;99.90;;;18.01;95.84;100348.94;5051414;28;19925;-64
2021/06/01 07:29:36;;;;;;;;;;;18.30;99.90;;;18.19;95.13;100357.63;5051619;28;20134;-63
2021/06/01 07:32:03;;;;;;;;;;;18.50;99.90;;;18.32;93.89;100350.91;5051785;28;19971;-63
2021/06/01 07:34:31;;;;;;;;;;;18.60;99.90;;;18.40;92.73;100369.09;5051611;28;19929;-64
2021/06/01 07:36:58;;;;;;;;;;;18.80;99.90;;;18.45;91.79;100355.94;5051607;28;19976;-63
2021/06/01 07:39:25;;;;;;;;;;;18.80;99.90;;;18.49;91.59;100361.53;5051287;28;19925;-64
2021/06/01 07:41:52;;;;;;;;;;;18.90;99.90;;;18.54;90.37;100369.50;5055665;28;20287;-64
2021/06/01 07:44:21;;;;;;;;;;;19.00;99.90;;;18.59;90.40;100373.91;5055877;28;19928;-64
2021/06/01 07:46:49;;;;;;;;;;;19.00;99.90;;;18.69;90.08;100374.19;5055363;28;20431;-64
2021/06/01 07:49:17;;;;;;;;;;;19.10;99.90;;;18.74;88.48;100365.69;5055633;28;19925;-63
2021/06/01 07:51:44;;;;;;;;;;;19.20;99.90;;;18.86;88.07;100362.84;5055237;28;20370;-64
2021/06/01 07:54:12;;;;;;;;;;;19.30;99.90;;;18.96;87.06;100367.00;5055809;28;20286;-64
2021/06/01 07:56:39;;;;;;;;;;;19.40;99.90;;;19.07;86.39;100365.28;5054742;28;19925;-64
2021/06/01 07:59:06;;;;;;;;;;;19.50;99.90;;;19.15;86.17;100369.75;5055453;28;19925;-63
2021/06/01 08:01:35;;;;;;;;;;;19.60;99.90;;;19.22;85.75;100369.13;5054991;28;19929;-64
2021/06/01 08:04:02;;;;;;;;;;;19.70;99.90;;;19.27;84.93;100366.88;5055601;28;19971;-63
2021/06/01 08:06:33;;;;;;;;;;;19.70;99.90;;;19.37;84.30;100371.00;5054382;28;19925;-64
2021/06/01 08:09:01;;;;;;;;;;;19.80;99.90;;;19.53;83.85;100372.59;5055326;28;19928;-64
2021/06/01 08:11:28;;;;;;;;;;;19.90;99.90;;;19.57;82.64;100375.41;5054967;28;19925;-63
2021/06/01 08:13:55;;;;;;;;;;;;;;;19.61;81.34;100379.81;5055371;28;19971;-64
2021/06/01 08:16:23;;;;;;;;;;;20.00;99.90;;;19.70;79.67;100381.56;5054576;28;19924;-64
2021/06/01 08:19:02;;;;;;;;;;;20.10;99.90;;;19.78;79.19;100377.78;5054858;28;19932;-64
2021/06/01 08:21:40;;;;;;;;;;;20.30;99.90;;;19.86;79.29;100382.25;5054800;28;19929;-64
2021/06/01 08:24:08;;;;;;;;;;;20.30;99.90;;;19.94;79.76;100381.25;5055628;28;20016;-64
2021/06/01 08:26:36;;;;;;;;;;;20.50;99.90;;;19.97;80.31;100388.75;5054332;28;20274;-63
2021/06/01 08:29:03;;;;;;;;;;;20.50;99.90;;;20.05;80.71;100387.72;5055014;28;19972;-64
2021/06/01 08:31:31;;;;;;;;;;;20.50;99.90;;;20.12;81.02;100394.13;5054469;28;20366;-64
2021/06/01 08:33:59;;;;;;;;;;;20.70;99.90;;;20.01;79.47;100400.56;5054861;28;19929;-64
2021/06/01 08:36:27;;;;;;;;;;;20.60;99.90;;;19.97;80.41;100400.50;5054044;28;20401;-64
2021/06/01 08:38:56;;;;;;;;;;;20.60;99.90;;;19.87;79.83;100400.31;5054578;28;19928;-64
2021/06/01 08:41:23;;;;;;;;;;;20.50;99.90;;;19.87;81.01;100405.78;5054380;28;19952;-64
2021/06/01 08:43:53;;;;;;;;;;;20.50;99.90;;;19.87;81.00;100403.06;5054939;28;19929;-64
2021/06/01 08:46:24;;;;;;;;;;;20.40;99.90;;;19.87;80.62;100400.31;5053837;28;19982;-64
2021/06/01 08:48:52;;;;;;;;;;;20.40;99.90;;;19.86;80.60;100399.50;5054588;28;20034;-64
2021/06/01 08:51:21;;;;;;;;;;;20.40;99.90;;;19.93;80.80;100402.41;5053601;28;19979;-63
2021/06/01 08:53:49;;;;;;;;;;;20.40;99.90;;;19.96;79.75;100401.69;5054882;28;20286;-64
2021/06/01 08:56:17;;;;;;;;;;;20.50;99.90;;;20.04;79.60;100392.41;5053466;28;20286;-64
2021/06/01 08:58:45;;;;;;;;;;;20.50;99.90;;;20.08;78.41;100393.28;5054183;28;20394;-64
2021/06/01 09:01:12;;;;;;;;;;;20.50;99.90;;;20.09;78.17;100394.84;5053947;28;20378;-64
2021/06/01 09:03:44;;;;;;;;;;;20.60;99.90;;;20.11;77.31;100397.25;5054636;28;19925;-65
2021/06/01 09:06:18;;;;;;;;;;;20.60;99.90;;;20.10;75.71;100403.88;5053530;28;19924;-64
2021/06/01 09:08:57;;;;;;;;;;;20.60;99.90;;;20.15;76.44;100400.88;5053998;28;19940;-63
2021/06/01 09:11:36;;;;;;;;;;;20.60;99.90;;;20.20;76.74;100389.56;5053992;28;19925;-64
2021/06/01 09:22:31;;;;;;;;;;;20.70;99.90;;;20.34;73.43;100405.53;5053500;28;19924;-64
2021/06/01 09:25:22;;;;;;;;;;;20.80;99.90;;;20.47;74.26;100396.75;5053871;28;19920;-63
2021/06/01 09:27:50;;;;;;;;;;;20.90;99.90;;;20.57;73.00;100401.66;5053817;28;19925;-64
2021/06/01 09:30:40;;;;;;;;;;;21.10;99.90;;;20.62;72.67;100404.09;5053461;28;19925;-63
2021/06/01 09:33:09;;;;;;;;;;;21.10;99.90;;;20.72;73.74;100399.94;5053892;28;20401;-64
2021/06/01 09:35:48;;;;;;;;;;;21.20;99.90;;;20.65;73.29;100408.03;5053152;28;20015;-64
2021/06/01 09:38:17;;;;;;;;;;;21.20;99.90;;;20.55;73.09;100408.66;5053430;28;19983;-64
2021/06/01 09:40:47;;;;;;;;;;;21.10;99.90;;;20.47;73.95;100409.69;5053625;28;19936;-64
2021/06/01 09:43:15;;;;;;;;;;;21.00;99.90;;;20.49;74.98;100408.16;5053978;28;20362;-63
2021/06/01 09:45:43;;;;;;;;;;;21.00;99.90;;;20.53;74.76;100408.22;5053044;28;20267;-64
2021/06/01 09:48:12;;;;;;;;;;;21.10;99.90;;;20.56;73.75;100410.25;5053294;28;20370;-64
2021/06/01 09:50:45;;;;;;;;;;;21.10;99.90;;;20.42;74.28;100419.03;5052940;28;19925;-64
2021/06/01 09:53:20;;;;;;;;;;;21.00;99.90;;;20.32;75.19;100418.84;5053391;28;19924;-64
2021/06/01 09:55:50;;;;;;;;;;;20.90;99.90;;;20.30;75.63;100423.91;5052570;28;20031;-64
2021/06/01 09:58:25;;;;;;;;;;;20.90;99.90;;;20.35;75.69;100424.41;5053400;28;19925;-64
2021/06/01 10:00:53;;;;;;;;;;;20.90;99.90;;;20.39;76.35;100427.22;5052880;28;19932;-63
2021/06/01 10:03:22;;;;;;;;;;;21.00;99.90;;;20.39;74.93;100425.25;5052679;28;19928;-64
2021/06/01 10:05:50;;;;;;;;;;;20.90;99.90;;;20.38;76.00;100428.38;5052549;28;20270;-64
2021/06/01 10:08:19;;;;;;;;;;;20.90;99.90;;;20.42;75.41;100432.78;5053181;28;19925;-64
2021/06/01 10:10:52;;;;;;;;;;;;;;;20.47;75.25;100429.72;5052879;28;20280;-64
2021/06/01 10:13:20;;;;;;;;;;;21.00;99.90;;;20.50;75.81;100439.19;5053139;28;20280;-64
2021/06/01 10:15:47;;;;;;;;;;;21.00;99.90;;;20.43;75.16;100442.59;5052386;28;19925;-64
2021/06/01 10:18:16;;;;;;;;;;;21.00;99.90;;;20.42;75.40;100452.00;5052896;28;19925;-64
2021/06/01 10:20:45;;;;;;;;;;;21.00;99.90;;;20.44;74.92;100457.91;5052663;28;19924;-64
2021/06/01 10:23:14;;;;;;;;;;;21.00;99.90;;;20.45;75.69;100443.03;5053757;28;19929;-64
2021/06/01 10:25:41;;;;;;;;;;;21.00;99.90;;;20.56;74.57;100438.50;5051928;28;20310;-63
2021/06/01 10:28:11;;;;;;;;;;;;;;;20.67;75.15;100436.72;5052604;28;19924;-63
2021/06/01 10:30:40;;;;;;;;;;;21.20;99.90;;;20.78;74.61;100434.19;5052601;28;19929;-64
2021/06/01 10:33:08;;;;;;;;;;;21.30;99.90;;;20.91;74.30;100434.78;5052556;28;19956;-64
2021/06/01 10:35:39;;;;;;;;;;;21.40;99.90;;;21.05;72.92;100443.25;5052178;28;19925;-63
2021/06/01 10:44:35;;;;;;;;;;;21.70;99.90;;;21.14;68.59;100441.06;5053018;28;19932;-63
2021/06/01 10:50:21;;;;;;;;;;;21.80;99.90;;;21.43;68.07;100440.31;5052319;28;20018;-64
2021/06/01 10:53:04;;;;;;;;;;;21.90;99.90;;;21.73;67.13;100446.59;5052238;28;19960;-64
2021/06/01 10:56:04;;;;;;;;;;;22.20;99.90;;;21.78;65.09;100446.31;5051895;28;19925;-64
2021/06/01 10:59:07;;;;;;;;;;;22.30;99.90;;;21.75;63.62;100449.00;5052079;28;20035;-64
2021/06/01 11:04:22;;;;;;;;;;;22.40;99.90;;;21.97;63.53;100455.59;5052584;28;20428;-65
2021/06/01 11:07:14;;;;;;;;;;;22.50;99.90;;;21.97;63.52;100455.59;5052152;28;19947;-63
2021/06/01 11:09:48;;;;;;;;;;;22.60;99.90;;;21.91;63.27;100455.16;5051822;28;19928;-64
2021/06/01 11:12:41;;;;;;;;;;;22.60;99.90;;;21.80;62.97;100463.22;5052019;28;19932;-64
2021/06/01 11:15:39;;;;;;;;;;;22.50;99.90;;;21.77;63.64;100455.72;5051479;28;19928;-64
2021/06/01 11:18:16;;;;;;;;;;;22.40;99.90;;;;;;5007358;28;19932;-63
2021/06/01 11:21:16;;;;;;;;;;;22.50;99.90;;;21.95;64.50;100460.66;5051737;28;19983;-64
2021/06/01 11:35:46;;;;;;;;;;;23.00;99.90;;;22.46;61.41;100464.44;5051641;28;19932;-64
2021/06/01 11:38:21;;;;;;;;;;;23.10;99.90;;;22.58;61.92;100472.44;5051762;28;19979;-64
2021/06/01 11:41:20;;;;;;;;;;;23.20;99.90;;;22.57;58.89;100465.31;5051560;28;20027;-63
2021/06/01 11:43:48;;;;;;;;;;;23.20;99.90;;;22.67;59.57;100470.19;5052167;28;19932;-63
2021/06/01 11:46:31;;;;;;;;;;;23.30;99.90;;;22.69;60.72;100467.81;5051305;28;19929;-64
2021/06/01 11:51:49;;;;;;;;;;;23.40;99.90;;;22.73;57.89;100468.66;5051638;28;20018;-64
2021/06/01 11:54:17;;;;;;;;;;;23.40;99.90;;;22.90;58.14;100466.41;5052155;28;19933;-63
2021/06/01 11:57:10;;;;;;;;;;;23.50;99.90;;;22.73;57.86;100465.09;5050978;28;19925;-64
2021/06/01 12:02:40;;;;;;;;;;;23.40;99.90;;;23.24;58.94;100459.59;5051848;28;19931;-64
2021/06/01 12:05:32;;;;;;;;;;;23.80;99.90;;;23.57;56.82;100459.44;5051229;28;19931;-63
2021/06/01 12:19:07;;;;;;;;;;;24.50;99.90;;;23.75;54.96;100460.34;5051340;28;20305;-64